<?xml version="1.0" encoding="UTF-8" standalone="no" ?>
<gpx xmlns="http://www.topografix.com/GPX/1/1" xmlns:xsi="http://www.w3.org/2001/XMLSchema-instance" xsi:schemaLocation="http://www.topografix.com/GPX/1/1 http://www.topografix.com/GPX/1/1/gpx.xsd" version="1.1" creator="VisuGPX - https://www.visugpx.com">
  <metadata>
    <name>Chemin de la Sainte Baume Variante pour Peyrus.</name>
    <desc><![CDATA[Pour éviter de Marcher 5 km sur la D 68 il est possible de suivre ce tracé.ATTENTION lorsque vous serez à la hauteur du toboggan aquatique continuer tout droit devant  le chemin de terre jusqu%u2019à  ce que vous rencontriez  sur votre gauche un autre chemin de terre qui conduit au hangar agricole visible depuis le toboggan.PS ne pas se fier au graphique de dénivelé il est ici erroné.
]]></desc>
  </metadata>
  <trk>
    <name><![CDATA[Tracé actuel: 15 JUIL 2014 14:53]]></name>
    <trkseg>
      <trkpt lat="44.91483" lon="5.06639">
        <ele>267.86</ele>
        <time>2014-07-15T12:53:15Z</time>
      </trkpt>
      <trkpt lat="44.91494" lon="5.06652">
        <ele>282.77</ele>
        <time>2014-07-15T12:53:45Z</time>
      </trkpt>
      <trkpt lat="44.91517" lon="5.06668">
        <ele>288.05</ele>
        <time>2014-07-15T12:54:15Z</time>
      </trkpt>
      <trkpt lat="44.91545" lon="5.06689">
        <ele>289.49</ele>
        <time>2014-07-15T12:54:45Z</time>
      </trkpt>
      <trkpt lat="44.91575" lon="5.06708">
        <ele>289.49</ele>
        <time>2014-07-15T12:55:15Z</time>
      </trkpt>
      <trkpt lat="44.91594" lon="5.06738">
        <ele>290.46</ele>
        <time>2014-07-15T12:55:45Z</time>
      </trkpt>
      <trkpt lat="44.91593" lon="5.06785">
        <ele>290.94</ele>
        <time>2014-07-15T12:56:15Z</time>
      </trkpt>
      <trkpt lat="44.91591" lon="5.06832">
        <ele>293.34</ele>
        <time>2014-07-15T12:56:45Z</time>
      </trkpt>
      <trkpt lat="44.91588" lon="5.06877">
        <ele>293.82</ele>
        <time>2014-07-15T12:57:15Z</time>
      </trkpt>
      <trkpt lat="44.91586" lon="5.06922">
        <ele>294.78</ele>
        <time>2014-07-15T12:57:45Z</time>
      </trkpt>
      <trkpt lat="44.91584" lon="5.06965">
        <ele>296.22</ele>
        <time>2014-07-15T12:58:15Z</time>
      </trkpt>
      <trkpt lat="44.91582" lon="5.07011">
        <ele>297.67</ele>
        <time>2014-07-15T12:58:45Z</time>
      </trkpt>
      <trkpt lat="44.91577" lon="5.07055">
        <ele>298.15</ele>
        <time>2014-07-15T12:59:15Z</time>
      </trkpt>
      <trkpt lat="44.91575" lon="5.07098">
        <ele>299.11</ele>
        <time>2014-07-15T12:59:45Z</time>
      </trkpt>
      <trkpt lat="44.91576" lon="5.07148">
        <ele>300.07</ele>
        <time>2014-07-15T13:00:15Z</time>
      </trkpt>
      <trkpt lat="44.91574" lon="5.07196">
        <ele>301.51</ele>
        <time>2014-07-15T13:00:45Z</time>
      </trkpt>
      <trkpt lat="44.91571" lon="5.07241">
        <ele>301.99</ele>
        <time>2014-07-15T13:01:15Z</time>
      </trkpt>
      <trkpt lat="44.9157" lon="5.07288">
        <ele>303.43</ele>
        <time>2014-07-15T13:01:45Z</time>
      </trkpt>
      <trkpt lat="44.91568" lon="5.07335">
        <ele>302.95</ele>
        <time>2014-07-15T13:02:15Z</time>
      </trkpt>
      <trkpt lat="44.91567" lon="5.07381">
        <ele>304.88</ele>
        <time>2014-07-15T13:02:45Z</time>
      </trkpt>
      <trkpt lat="44.91562" lon="5.0743">
        <ele>305.36</ele>
        <time>2014-07-15T13:03:15Z</time>
      </trkpt>
      <trkpt lat="44.91591" lon="5.07436">
        <ele>305.36</ele>
        <time>2014-07-15T13:03:45Z</time>
      </trkpt>
      <trkpt lat="44.91629" lon="5.07438">
        <ele>305.36</ele>
        <time>2014-07-15T13:04:15Z</time>
      </trkpt>
      <trkpt lat="44.91635" lon="5.07477">
        <ele>306.8</ele>
        <time>2014-07-15T13:04:45Z</time>
      </trkpt>
      <trkpt lat="44.91635" lon="5.07519">
        <ele>306.8</ele>
        <time>2014-07-15T13:05:15Z</time>
      </trkpt>
      <trkpt lat="44.91646" lon="5.07564">
        <ele>307.76</ele>
        <time>2014-07-15T13:05:45Z</time>
      </trkpt>
      <trkpt lat="44.91658" lon="5.07611">
        <ele>307.76</ele>
        <time>2014-07-15T13:06:15Z</time>
      </trkpt>
      <trkpt lat="44.91669" lon="5.07656">
        <ele>308.72</ele>
        <time>2014-07-15T13:06:45Z</time>
      </trkpt>
      <trkpt lat="44.9168" lon="5.07704">
        <ele>309.68</ele>
        <time>2014-07-15T13:07:15Z</time>
      </trkpt>
      <trkpt lat="44.91689" lon="5.07751">
        <ele>311.12</ele>
        <time>2014-07-15T13:07:45Z</time>
      </trkpt>
      <trkpt lat="44.91693" lon="5.07768">
        <ele>312.09</ele>
        <time>2014-07-15T13:08:15Z</time>
      </trkpt>
      <trkpt lat="44.91693" lon="5.0777">
        <ele>312.57</ele>
        <time>2014-07-15T13:08:39Z</time>
      </trkpt>
      <trkpt lat="44.91691" lon="5.07769">
        <ele>312.57</ele>
        <time>2014-07-15T13:11:55Z</time>
      </trkpt>
      <trkpt lat="44.91692" lon="5.07769">
        <ele>312.09</ele>
        <time>2014-07-15T13:12:26Z</time>
      </trkpt>
      <trkpt lat="44.91692" lon="5.07769">
        <ele>312.57</ele>
        <time>2014-07-15T13:12:56Z</time>
      </trkpt>
      <trkpt lat="44.91692" lon="5.07771">
        <ele>313.05</ele>
        <time>2014-07-15T13:13:26Z</time>
      </trkpt>
      <trkpt lat="44.91696" lon="5.07886">
        <ele>314.97</ele>
        <time>2014-07-15T13:13:56Z</time>
      </trkpt>
      <trkpt lat="44.91698" lon="5.08028">
        <ele>316.89</ele>
        <time>2014-07-15T13:14:26Z</time>
      </trkpt>
      <trkpt lat="44.917" lon="5.08174">
        <ele>319.78</ele>
        <time>2014-07-15T13:14:56Z</time>
      </trkpt>
      <trkpt lat="44.91696" lon="5.08313">
        <ele>323.14</ele>
        <time>2014-07-15T13:15:26Z</time>
      </trkpt>
      <trkpt lat="44.91686" lon="5.08458">
        <ele>327.47</ele>
        <time>2014-07-15T13:15:56Z</time>
      </trkpt>
      <trkpt lat="44.91674" lon="5.08608">
        <ele>330.35</ele>
        <time>2014-07-15T13:16:26Z</time>
      </trkpt>
      <trkpt lat="44.91662" lon="5.08757">
        <ele>333.71</ele>
        <time>2014-07-15T13:16:56Z</time>
      </trkpt>
      <trkpt lat="44.91655" lon="5.08902">
        <ele>337.08</ele>
        <time>2014-07-15T13:17:26Z</time>
      </trkpt>
      <trkpt lat="44.91656" lon="5.09046">
        <ele>339.96</ele>
        <time>2014-07-15T13:17:56Z</time>
      </trkpt>
      <trkpt lat="44.91681" lon="5.09185">
        <ele>344.77</ele>
        <time>2014-07-15T13:18:26Z</time>
      </trkpt>
      <trkpt lat="44.91696" lon="5.09333">
        <ele>348.13</ele>
        <time>2014-07-15T13:18:56Z</time>
      </trkpt>
      <trkpt lat="44.91708" lon="5.09479">
        <ele>351.02</ele>
        <time>2014-07-15T13:19:26Z</time>
      </trkpt>
      <trkpt lat="44.91721" lon="5.09621">
        <ele>353.42</ele>
        <time>2014-07-15T13:19:56Z</time>
      </trkpt>
      <trkpt lat="44.91755" lon="5.09757">
        <ele>354.38</ele>
        <time>2014-07-15T13:20:26Z</time>
      </trkpt>
      <trkpt lat="44.91783" lon="5.09893">
        <ele>358.71</ele>
        <time>2014-07-15T13:20:56Z</time>
      </trkpt>
      <trkpt lat="44.91799" lon="5.10027">
        <ele>364.96</ele>
        <time>2014-07-15T13:21:26Z</time>
      </trkpt>
      <trkpt lat="44.91717" lon="5.10107">
        <ele>367.36</ele>
        <time>2014-07-15T13:21:56Z</time>
      </trkpt>
      <trkpt lat="44.91669" lon="5.10236">
        <ele>366.88</ele>
        <time>2014-07-15T13:22:26Z</time>
      </trkpt>
      <trkpt lat="44.91663" lon="5.10374">
        <ele>367.84</ele>
        <time>2014-07-15T13:22:56Z</time>
      </trkpt>
      <trkpt lat="44.91606" lon="5.10484">
        <ele>374.09</ele>
        <time>2014-07-15T13:23:26Z</time>
      </trkpt>
      <trkpt lat="44.91581" lon="5.10629">
        <ele>382.26</ele>
        <time>2014-07-15T13:23:56Z</time>
      </trkpt>
      <trkpt lat="44.915" lon="5.10737">
        <ele>387.07</ele>
        <time>2014-07-15T13:24:26Z</time>
      </trkpt>
      <trkpt lat="44.91415" lon="5.10824">
        <ele>388.51</ele>
        <time>2014-07-15T13:24:56Z</time>
      </trkpt>
      <trkpt lat="44.91346" lon="5.10907">
        <ele>392.84</ele>
        <time>2014-07-15T13:25:26Z</time>
      </trkpt>
      <trkpt lat="44.91262" lon="5.10923">
        <ele>391.39</ele>
        <time>2014-07-15T13:25:56Z</time>
      </trkpt>
      <trkpt lat="44.91254" lon="5.10897">
        <ele>392.84</ele>
        <time>2014-07-15T13:26:26Z</time>
      </trkpt>
      <trkpt lat="44.91257" lon="5.10894">
        <ele>392.84</ele>
        <time>2014-07-15T13:26:40Z</time>
      </trkpt>
      <trkpt lat="44.91172" lon="5.04303">
        <ele>252.48</ele>
        <time>2014-07-15T13:36:15Z</time>
      </trkpt>
      <trkpt lat="44.91172" lon="5.04299">
        <ele>252.48</ele>
        <time>2014-07-15T13:36:46Z</time>
      </trkpt>
      <trkpt lat="44.91162" lon="5.04461">
        <ele>253.44</ele>
        <time>2014-07-15T13:37:16Z</time>
      </trkpt>
      <trkpt lat="44.91273" lon="5.04516">
        <ele>252.48</ele>
        <time>2014-07-15T13:37:46Z</time>
      </trkpt>
      <trkpt lat="44.91366" lon="5.04583">
        <ele>252.48</ele>
        <time>2014-07-15T13:38:16Z</time>
      </trkpt>
      <trkpt lat="44.91349" lon="5.04721">
        <ele>256.33</ele>
        <time>2014-07-15T13:38:46Z</time>
      </trkpt>
      <trkpt lat="44.91334" lon="5.04863">
        <ele>258.73</ele>
        <time>2014-07-15T13:39:16Z</time>
      </trkpt>
      <trkpt lat="44.91318" lon="5.05011">
        <ele>261.14</ele>
        <time>2014-07-15T13:39:46Z</time>
      </trkpt>
      <trkpt lat="44.91301" lon="5.05157">
        <ele>264.02</ele>
        <time>2014-07-15T13:40:16Z</time>
      </trkpt>
      <trkpt lat="44.91284" lon="5.05313">
        <ele>265.94</ele>
        <time>2014-07-15T13:40:46Z</time>
      </trkpt>
      <trkpt lat="44.91277" lon="5.05455">
        <ele>269.31</ele>
        <time>2014-07-15T13:41:16Z</time>
      </trkpt>
      <trkpt lat="44.91404" lon="5.05484">
        <ele>269.31</ele>
        <time>2014-07-15T13:41:46Z</time>
      </trkpt>
      <trkpt lat="44.91481" lon="5.05555">
        <ele>270.75</ele>
        <time>2014-07-15T13:42:16Z</time>
      </trkpt>
      <trkpt lat="44.9146" lon="5.05701">
        <ele>272.67</ele>
        <time>2014-07-15T13:42:46Z</time>
      </trkpt>
      <trkpt lat="44.91443" lon="5.05842">
        <ele>275.56</ele>
        <time>2014-07-15T13:43:16Z</time>
      </trkpt>
      <trkpt lat="44.91435" lon="5.05987">
        <ele>278.44</ele>
        <time>2014-07-15T13:43:46Z</time>
      </trkpt>
      <trkpt lat="44.91459" lon="5.06113">
        <ele>281.8</ele>
        <time>2014-07-15T13:44:16Z</time>
      </trkpt>
      <trkpt lat="44.91472" lon="5.06237">
        <ele>284.21</ele>
        <time>2014-07-15T13:44:46Z</time>
      </trkpt>
      <trkpt lat="44.91496" lon="5.06365">
        <ele>287.09</ele>
        <time>2014-07-15T13:45:16Z</time>
      </trkpt>
      <trkpt lat="44.91552" lon="5.06465">
        <ele>289.97</ele>
        <time>2014-07-15T13:45:46Z</time>
      </trkpt>
      <trkpt lat="44.91526" lon="5.06576">
        <ele>291.9</ele>
        <time>2014-07-15T13:46:16Z</time>
      </trkpt>
      <trkpt lat="44.91481" lon="5.06633">
        <ele>292.38</ele>
        <time>2014-07-15T13:46:46Z</time>
      </trkpt>
      <trkpt lat="44.9148" lon="5.06635">
        <ele>292.38</ele>
        <time>2014-07-15T13:47:16Z</time>
      </trkpt>
      <trkpt lat="44.9148" lon="5.06635">
        <ele>292.38</ele>
        <time>2014-07-15T13:47:27Z</time>
      </trkpt>
    </trkseg>
  </trk>
</gpx>